createdAt,value
2023-12-29T00:01:34.610Z,100044.00
2023-12-29T00:04:07.102Z,100038.94
2023-12-29T00:06:49.893Z,100039.62
2023-12-29T00:09:29.361Z,100039.24
2023-12-29T00:12:01.398Z,100037.23
2023-12-29T00:14:55.767Z,100035.05
2023-12-29T00:17:27.799Z,100024.59
2023-12-29T00:19:59.939Z,100020.20
2023-12-29T00:22:31.813Z,100025.86
2023-12-29T00:25:04.101Z,100023.83
2023-12-29T00:27:37.806Z,100023.11
2023-12-29T00:30:11.916Z,100018.01
2023-12-29T00:32:44.092Z,100018.21
2023-12-29T00:35:16.434Z,100022.05
2023-12-29T00:37:48.873Z,100021.73
2023-12-29T00:40:20.911Z,100015.20
2023-12-29T00:42:52.935Z,100015.20
2023-12-29T00:45:24.974Z,100012.15
2023-12-29T00:47:59.556Z,100012.02
2023-12-29T00:50:31.988Z,100008.75
2023-12-29T00:53:03.920Z,100007.08
2023-12-29T00:55:35.855Z,100001.61
2023-12-29T00:58:08.538Z,100003.33
2023-12-29T01:00:41.057Z,99999.00
2023-12-29T01:03:13.215Z,100000.00
2023-12-29T01:05:46.156Z,99994.95
2023-12-29T01:08:18.056Z,99995.91
2023-12-29T01:10:49.989Z,99996.20
2023-12-29T01:13:22.299Z,100000.13
2023-12-29T01:15:54.676Z,99986.67
2023-12-29T01:18:26.892Z,99986.98
2023-12-29T01:21:01.227Z,99985.01
2023-12-29T01:23:34.409Z,99986.73
2023-12-29T01:26:06.708Z,99982.98
2023-12-29T01:28:38.837Z,99983.68
2023-12-29T01:31:12.761Z,99988.08
2023-12-29T01:33:44.843Z,99989.74
2023-12-29T01:36:25.328Z,99988.72
2023-12-29T01:38:58.388Z,99984.90
2023-12-29T01:41:30.683Z,99979.13
2023-12-29T01:44:24.291Z,99975.11
2023-12-29T01:46:59.053Z,99970.03
2023-12-29T01:49:31.930Z,99972.01
2023-12-29T01:52:05.057Z,99967.25
2023-12-29T01:54:39.522Z,99964.34
2023-12-29T01:57:13.143Z,99963.91
2023-12-29T01:59:46.405Z,99965.20
2023-12-29T02:02:19.413Z,99963.00
2023-12-29T02:04:51.517Z,99967.59
2023-12-29T02:07:23.867Z,99965.41
2023-12-29T02:09:56.869Z,99970.53
2023-12-29T02:12:29.058Z,99964.77
2023-12-29T02:15:01.169Z,99963.26
2023-12-29T02:17:38.241Z,99962.46
2023-12-29T02:20:11.878Z,99951.73
2023-12-29T02:22:44.070Z,99950.37
2023-12-29T02:25:17.017Z,99946.02
2023-12-29T02:27:55.963Z,99941.13
2023-12-29T02:30:36.206Z,99934.08
2023-12-29T02:33:12.839Z,99931.92
2023-12-29T02:35:47.746Z,99933.14
2023-12-29T02:38:19.845Z,99931.89
2023-12-29T02:40:52.068Z,99934.31
2023-12-29T02:43:24.118Z,99935.35
2023-12-29T02:45:56.117Z,99933.59
2023-12-29T02:48:28.343Z,99929.27
2023-12-29T02:51:00.426Z,99922.45
2023-12-29T02:53:33.043Z,99918.86
2023-12-29T02:56:05.441Z,99920.61
2023-12-29T02:58:37.349Z,99921.52
2023-12-29T03:01:09.373Z,99916.83
2023-12-29T03:03:42.304Z,99910.42
2023-12-29T03:06:14.447Z,99909.32
2023-12-29T03:08:46.418Z,99902.70
2023-12-29T03:11:18.522Z,99903.27
2023-12-29T03:13:50.407Z,99900.69
2023-12-29T03:16:22.310Z,99901.17
2023-12-29T03:18:54.278Z,99900.77
2023-12-29T03:21:26.225Z,99900.54
2023-12-29T03:23:58.157Z,99899.17
2023-12-29T03:26:30.007Z,99896.22
2023-12-29T03:29:02.125Z,99888.39
2023-12-29T03:31:36.504Z,99888.27
2023-12-29T03:34:09.238Z,99886.21
2023-12-29T03:36:41.310Z,99881.27
2023-12-29T03:39:13.248Z,99878.45
2023-12-29T03:41:45.265Z,99875.77
2023-12-29T03:44:18.637Z,99877.83
2023-12-29T03:46:51.263Z,99880.58
2023-12-29T03:49:23.217Z,99879.36
2023-12-29T03:51:55.538Z,99877.19
2023-12-29T03:54:27.512Z,99874.63
2023-12-29T03:56:59.435Z,99872.97
2023-12-29T03:59:31.349Z,99869.65
2023-12-29T04:02:04.169Z,99868.28
2023-12-29T04:04:38.410Z,99863.77
2023-12-29T04:07:10.476Z,99854.48
2023-12-29T04:09:42.512Z,99857.80
2023-12-29T04:12:14.406Z,99856.05
2023-12-29T04:14:47.051Z,99850.01
2023-12-29T04:17:18.977Z,99846.58
2023-12-29T04:19:50.970Z,99839.49
2023-12-29T04:22:22.858Z,99839.91
2023-12-29T04:24:54.832Z,99839.09
2023-12-29T04:27:26.736Z,99836.73
2023-12-29T04:29:58.645Z,99831.48
2023-12-29T04:32:30.584Z,99829.94
2023-12-29T04:35:02.843Z,99833.22
2023-12-29T04:37:34.789Z,99839.23
2023-12-29T04:40:08.375Z,99835.44
2023-12-29T04:42:40.412Z,99830.46
2023-12-29T04:45:13.563Z,99830.52
2023-12-29T04:47:45.525Z,99829.98
2023-12-29T04:50:17.700Z,99833.38
2023-12-29T04:52:49.978Z,99836.02
2023-12-29T04:55:22.083Z,99833.17
2023-12-29T04:57:54.161Z,99833.33
2023-12-29T05:00:28.375Z,99837.30
2023-12-29T05:03:00.317Z,99824.35
2023-12-29T05:05:32.615Z,99822.73
2023-12-29T05:08:05.093Z,99817.43
2023-12-29T05:10:37.982Z,99814.36
2023-12-29T05:13:09.970Z,99810.90
2023-12-29T05:15:42.119Z,99810.58
2023-12-29T05:18:16.235Z,99812.27
2023-12-29T05:20:48.264Z,99810.80
2023-12-29T05:23:20.155Z,99809.19
2023-12-29T05:25:52.209Z,99807.08
2023-12-29T05:28:24.098Z,99810.54
2023-12-29T05:30:56.115Z,99810.58
2023-12-29T05:33:28.376Z,99806.17
2023-12-29T05:36:00.335Z,99805.80
2023-12-29T05:38:33.556Z,99806.52
2023-12-29T05:41:06.100Z,99811.98
2023-12-29T05:43:38.128Z,99813.58
2023-12-29T05:46:14.637Z,99816.34
2023-12-29T05:48:46.652Z,99818.33
2023-12-29T05:51:18.597Z,99821.13
2023-12-29T05:53:50.479Z,99824.56
2023-12-29T05:56:22.960Z,99821.25
2023-12-29T05:58:57.198Z,99821.70
2023-12-29T06:01:29.255Z,99813.48
2023-12-29T06:04:01.427Z,99810.17
2023-12-29T06:06:33.737Z,99812.19
2023-12-29T06:09:05.699Z,99808.08
2023-12-29T06:11:40.401Z,99801.60
2023-12-29T06:14:15.151Z,99793.86
2023-12-29T06:16:47.088Z,99796.67
2023-12-29T06:19:19.140Z,99789.63
2023-12-29T06:21:53.595Z,99788.60
2023-12-29T06:24:30.622Z,99793.16
2023-12-29T06:27:02.836Z,99795.42
2023-12-29T06:29:34.728Z,99795.63
2023-12-29T06:32:07.679Z,99789.55
2023-12-29T06:34:40.062Z,99782.91
2023-12-29T06:37:12.824Z,99778.73
2023-12-29T06:39:45.017Z,99770.54
2023-12-29T06:42:17.097Z,99772.73
2023-12-29T06:44:49.769Z,99773.64
2023-12-29T06:47:21.781Z,99778.25
2023-12-29T06:49:53.768Z,99789.15
2023-12-29T06:52:26.546Z,99785.55
2023-12-29T06:54:58.449Z,99782.05
2023-12-29T06:57:30.574Z,99779.55
2023-12-29T07:00:02.606Z,99783.56
2023-12-29T07:02:34.944Z,99790.27
2023-12-29T07:05:10.412Z,99797.65
2023-12-29T07:07:42.483Z,99793.75
2023-12-29T07:10:16.244Z,99794.75
2023-12-29T07:12:48.267Z,99787.44
2023-12-29T07:15:23.882Z,99782.13
2023-12-29T07:17:56.133Z,99787.52
2023-12-29T07:20:28.388Z,99789.86
2023-12-29T07:23:00.698Z,99793.65
2023-12-29T07:25:32.678Z,99799.76
2023-12-29T07:28:05.662Z,99799.05
2023-12-29T07:30:37.933Z,99803.98
2023-12-29T07:33:10.001Z,99809.20
2023-12-29T07:35:42.086Z,99808.73
2023-12-29T07:38:14.116Z,99808.72
2023-12-29T07:40:46.692Z,99805.77
2023-12-29T07:43:18.689Z,99807.84
2023-12-29T07:45:51.990Z,99803.99
2023-12-29T07:48:24.356Z,99803.32
2023-12-29T07:51:07.034Z,99800.08
2023-12-29T07:53:39.044Z,99802.42
2023-12-29T07:56:12.302Z,99791.92
2023-12-29T07:58:46.419Z,99797.98
2023-12-29T08:01:19.795Z,99795.16
2023-12-29T08:03:51.942Z,99791.88
2023-12-29T08:06:26.410Z,99790.23
2023-12-29T08:08:59.136Z,99784.10
2023-12-29T08:11:31.162Z,99781.73
2023-12-29T08:14:03.794Z,99784.54
2023-12-29T08:16:39.808Z,99779.52
2023-12-29T08:19:12.263Z,99782.69
2023-12-29T08:21:44.483Z,99780.39
2023-12-29T08:24:18.202Z,99778.26
2023-12-29T08:26:50.742Z,99773.64
2023-12-29T08:29:22.945Z,99770.36
2023-12-29T08:31:54.927Z,99774.96
2023-12-29T08:34:28.635Z,99778.73
2023-12-29T08:37:03.165Z,99780.23
2023-12-29T08:39:35.290Z,99784.91
2023-12-29T08:42:07.985Z,99787.21
2023-12-29T08:44:39.926Z,99783.02
2023-12-29T08:47:11.953Z,99789.80
2023-12-29T08:49:44.584Z,99794.23
2023-12-29T08:52:17.082Z,99790.85
2023-12-29T08:54:49.228Z,99796.58
2023-12-29T08:57:21.267Z,99797.50
2023-12-29T08:59:53.441Z,99793.02
2023-12-29T09:02:25.372Z,99797.22
2023-12-29T09:04:57.655Z,99795.84
2023-12-29T09:07:31.414Z,99790.05
2023-12-29T09:10:04.724Z,99784.38
2023-12-29T09:12:36.708Z,99782.12
2023-12-29T09:15:10.182Z,99790.24
2023-12-29T09:17:43.057Z,99795.77
2023-12-29T09:20:16.385Z,99801.73
2023-12-29T09:22:49.187Z,99803.67
2023-12-29T09:25:21.857Z,99794.73
2023-12-29T09:27:54.480Z,99794.37
2023-12-29T09:30:26.514Z,99797.96
2023-12-29T09:32:58.616Z,99791.58
2023-12-29T09:35:30.547Z,99795.77
2023-12-29T09:38:03.174Z,99793.83
2023-12-29T09:40:35.607Z,99801.85
2023-12-29T09:43:08.126Z,99805.55
2023-12-29T09:45:43.474Z,99803.91
2023-12-29T09:48:20.598Z,99806.34
2023-12-29T09:50:54.737Z,99804.17
2023-12-29T09:53:27.397Z,99800.39
2023-12-29T09:56:02.268Z,99796.39
2023-12-29T09:58:35.809Z,99797.64
2023-12-29T10:01:08.844Z,99792.82
2023-12-29T10:03:41.083Z,99795.75
2023-12-29T10:06:18.035Z,99802.34
2023-12-29T10:08:52.262Z,99800.04
2023-12-29T10:11:26.163Z,99801.46
2023-12-29T10:14:01.818Z,99802.80
2023-12-29T10:16:43.409Z,99797.15
2023-12-29T10:19:25.695Z,99792.21
2023-12-29T10:22:10.798Z,99795.09
2023-12-29T10:24:45.046Z,99788.00
2023-12-29T10:27:17.151Z,99781.44
2023-12-29T10:29:49.525Z,99784.73
2023-12-29T10:32:21.698Z,99784.26
2023-12-29T10:35:10.057Z,99786.58
2023-12-29T10:37:42.247Z,99789.23
2023-12-29T10:40:21.097Z,99791.86
2023-12-29T10:43:02.499Z,99789.94
2023-12-29T10:45:35.082Z,99792.64
2023-12-29T10:48:08.396Z,99793.58
2023-12-29T10:50:47.943Z,99785.29
2023-12-29T10:53:20.063Z,99783.52
2023-12-29T10:55:52.237Z,99778.16
2023-12-29T10:58:26.581Z,99774.25
2023-12-29T11:00:59.226Z,99768.81
2023-12-29T11:03:33.600Z,99773.09
2023-12-29T11:06:06.030Z,99769.77
2023-12-29T11:08:39.160Z,99766.67
2023-12-29T11:11:11.966Z,99761.04
2023-12-29T11:13:46.660Z,99760.80
2023-12-29T11:16:22.898Z,99760.80
2023-12-29T11:18:58.443Z,99762.95
2023-12-29T11:21:32.889Z,99760.17
2023-12-29T11:24:04.986Z,99758.90
2023-12-29T11:26:40.111Z,99758.52
2023-12-29T11:29:13.632Z,99757.46
2023-12-29T11:31:47.555Z,99754.82
2023-12-29T11:34:26.131Z,99753.20
2023-12-29T11:37:08.130Z,99752.02
2023-12-29T11:39:51.830Z,99748.73
2023-12-29T11:42:32.272Z,99748.70
2023-12-29T11:45:33.055Z,99746.24
2023-12-29T11:48:05.984Z,99743.19
2023-12-29T11:50:39.705Z,99747.71
2023-12-29T11:53:32.317Z,99735.80
2023-12-29T11:56:16.762Z,99734.66
2023-12-29T11:58:48.914Z,99731.68
2023-12-29T12:01:37.471Z,99732.71
2023-12-29T12:04:41.865Z,99725.48
2023-12-29T12:07:18.658Z,99720.29
2023-12-29T12:09:51.275Z,99729.48
2023-12-29T12:12:44.096Z,99729.19
2023-12-29T12:15:36.752Z,99741.23
2023-12-29T12:18:15.048Z,99742.28
2023-12-29T12:20:54.515Z,99741.33
2023-12-29T12:23:32.477Z,99738.32
2023-12-29T12:26:06.872Z,99736.74
2023-12-29T12:28:41.478Z,99736.12
2023-12-29T12:31:17.577Z,99734.38
2023-12-29T12:33:58.411Z,99736.91
2023-12-29T12:36:30.708Z,99740.96
2023-12-29T12:39:02.693Z,99743.14
2023-12-29T12:41:35.719Z,99731.24
2023-12-29T12:44:13.453Z,99740.38
2023-12-29T12:46:53.188Z,99746.88
2023-12-29T12:49:27.742Z,99744.98
2023-12-29T12:52:00.178Z,99743.05
2023-12-29T12:54:34.599Z,99740.27
2023-12-29T12:57:07.867Z,99742.70
2023-12-29T12:59:40.045Z,99745.44
2023-12-29T13:02:13.489Z,99741.13
2023-12-29T13:04:46.708Z,99742.83
2023-12-29T13:07:21.178Z,99741.41
2023-12-29T13:09:54.638Z,99739.47
2023-12-29T13:12:26.574Z,99733.52
2023-12-29T13:15:09.991Z,99733.66
2023-12-29T13:17:51.831Z,99737.61
2023-12-29T13:20:24.364Z,99741.85
2023-12-29T13:22:56.666Z,99741.70
2023-12-29T13:25:30.301Z,99744.33
2023-12-29T13:28:04.592Z,99745.02
2023-12-29T13:30:39.965Z,99740.45
2023-12-29T13:33:17.674Z,99743.51
2023-12-29T13:36:01.988Z,99742.50
2023-12-29T13:38:48.318Z,99747.89
2023-12-29T13:41:22.671Z,99746.05
2023-12-29T13:43:57.189Z,99740.84
2023-12-29T13:46:29.734Z,99741.20
2023-12-29T13:49:02.393Z,99738.07
2023-12-29T13:51:36.688Z,99741.27
2023-12-29T13:54:09.054Z,99738.30
2023-12-29T13:56:41.448Z,99733.27
2023-12-29T13:59:14.217Z,99728.64
2023-12-29T14:01:47.443Z,99731.34
2023-12-29T14:04:21.978Z,99723.36
2023-12-29T14:07:04.067Z,99720.60
2023-12-29T14:09:38.619Z,99718.61
2023-12-29T14:12:11.245Z,99714.70
2023-12-29T14:14:43.368Z,99714.20
2023-12-29T14:17:24.293Z,99719.81
2023-12-29T14:20:04.450Z,99723.61
2023-12-29T14:22:36.737Z,99722.24
2023-12-29T14:25:10.851Z,99725.02
2023-12-29T14:27:43.128Z,99725.48
2023-12-29T14:30:24.200Z,99726.46
2023-12-29T14:32:59.205Z,99722.45
2023-12-29T14:35:31.859Z,99728.06
2023-12-29T14:38:05.769Z,99732.76
2023-12-29T14:40:37.689Z,99737.88
2023-12-29T14:43:09.640Z,99738.02
2023-12-29T14:45:42.435Z,99738.52
2023-12-29T14:48:14.880Z,99739.02
2023-12-29T14:50:47.382Z,99731.26
2023-12-29T14:53:21.736Z,99725.42
2023-12-29T14:55:56.243Z,99726.34
2023-12-29T14:58:28.566Z,99720.23
2023-12-29T15:01:01.009Z,99719.18
2023-12-29T15:03:33.558Z,99714.77
2023-12-29T15:06:09.262Z,99706.43
2023-12-29T15:08:41.378Z,99708.56
2023-12-29T15:11:16.650Z,99712.27
2023-12-29T15:13:48.727Z,99709.93
2023-12-29T15:16:23.191Z,99710.02
2023-12-29T15:18:55.819Z,99714.77
2023-12-29T15:21:27.763Z,99724.45
2023-12-29T15:23:59.808Z,99723.24
2023-12-29T15:26:31.716Z,99714.88
2023-12-29T15:29:03.939Z,99719.29
2023-12-29T15:31:36.063Z,99718.44
2023-12-29T15:34:08.211Z,99720.40
2023-12-29T15:36:40.808Z,99721.63
2023-12-29T15:39:12.793Z,99723.52
2023-12-29T15:41:46.912Z,99721.08
2023-12-29T15:44:18.783Z,99718.84
2023-12-29T15:46:51.841Z,99713.84
2023-12-29T15:49:28.647Z,99695.56
2023-12-29T15:52:01.265Z,99705.14
2023-12-29T15:54:34.455Z,99705.80
2023-12-29T15:57:09.110Z,99696.17
2023-12-29T15:59:41.263Z,99703.37
2023-12-29T16:02:13.637Z,99706.67
2023-12-29T16:04:45.866Z,99709.84
2023-12-29T16:07:20.247Z,99716.02
2023-12-29T16:09:52.328Z,99712.88
2023-12-29T16:12:26.618Z,99703.11
2023-12-29T16:14:58.825Z,99713.77
2023-12-29T16:17:30.769Z,99710.34
2023-12-29T16:20:02.828Z,99709.89
2023-12-29T16:22:35.035Z,99711.91
2023-12-29T16:25:09.076Z,99705.83
2023-12-29T16:27:45.928Z,99698.52
2023-12-29T16:30:18.418Z,99699.91
2023-12-29T16:32:52.625Z,99697.56
2023-12-29T16:35:27.501Z,99693.03
2023-12-29T16:38:01.470Z,99696.02
2023-12-29T16:40:35.852Z,99691.41
2023-12-29T16:43:08.156Z,99694.59
2023-12-29T16:45:41.142Z,99691.60
2023-12-29T16:48:13.187Z,99688.43
2023-12-29T16:50:47.750Z,99685.47
2023-12-29T16:53:19.953Z,99685.01
2023-12-29T16:55:52.349Z,99685.95
2023-12-29T16:58:24.583Z,99687.05
2023-12-29T17:00:57.053Z,99686.02
2023-12-29T17:03:31.103Z,99687.61
2023-12-29T17:06:03.330Z,99687.65
2023-12-29T17:08:37.794Z,99690.92
2023-12-29T17:11:10.148Z,99691.17
2023-12-29T17:13:42.206Z,99690.81
2023-12-29T17:16:16.509Z,99695.29
2023-12-29T17:18:51.691Z,99689.71
2023-12-29T17:21:25.306Z,99688.92
2023-12-29T17:23:57.644Z,99692.77
2023-12-29T17:26:29.849Z,99691.17
2023-12-29T17:29:04.371Z,99690.95
2023-12-29T17:31:36.278Z,99695.32
2023-12-29T17:34:10.879Z,99693.45
2023-12-29T17:36:43.121Z,99693.33
2023-12-29T17:39:15.288Z,99691.83
2023-12-29T17:41:47.558Z,99694.59
2023-12-29T17:44:22.231Z,99694.25
2023-12-29T17:46:57.288Z,99693.28
2023-12-29T17:49:30.764Z,99697.58
2023-12-29T17:52:03.058Z,99696.68
2023-12-29T17:54:35.215Z,99696.11
2023-12-29T17:57:09.554Z,99697.88
2023-12-29T17:59:41.446Z,99701.06
2023-12-29T18:02:13.365Z,99697.53
2023-12-29T18:04:45.647Z,99700.64
2023-12-29T18:07:18.184Z,99696.11
2023-12-29T18:09:50.173Z,99693.74
2023-12-29T18:12:22.397Z,99694.27
2023-12-29T18:14:54.607Z,99687.05
2023-12-29T18:17:28.024Z,99691.16
2023-12-29T18:20:00.092Z,99686.66
2023-12-29T18:22:32.484Z,99684.48
2023-12-29T18:25:05.095Z,99681.77
2023-12-29T18:27:38.328Z,99678.87
2023-12-29T18:30:12.657Z,99675.98
2023-12-29T18:32:45.411Z,99680.27
2023-12-29T18:35:17.732Z,99674.48
2023-12-29T18:37:49.845Z,99678.32
2023-12-29T18:40:21.913Z,99677.98
2023-12-29T18:42:54.037Z,99675.67
2023-12-29T18:45:28.753Z,99681.86
2023-12-29T18:48:01.890Z,99680.62
2023-12-29T18:50:36.502Z,99680.89
2023-12-29T18:53:09.013Z,99678.81
2023-12-29T18:55:45.611Z,99673.78
2023-12-29T18:58:18.215Z,99672.89
2023-12-29T19:00:53.973Z,99673.66
2023-12-29T19:03:26.079Z,99669.05
2023-12-29T19:06:00.364Z,99671.73
2023-12-29T19:08:32.664Z,99666.20
2023-12-29T19:11:05.310Z,99676.55
2023-12-29T19:13:42.404Z,99670.02
2023-12-29T19:16:22.630Z,99670.13
2023-12-29T19:18:54.863Z,99671.80
2023-12-29T19:21:29.482Z,99671.56
2023-12-29T19:24:02.377Z,99673.81
2023-12-29T19:26:34.505Z,99677.49
2023-12-29T19:29:06.799Z,99676.20
2023-12-29T19:31:41.886Z,99678.18
2023-12-29T19:34:14.791Z,99676.15
2023-12-29T19:36:46.851Z,99678.08
2023-12-29T19:39:23.701Z,99676.91
2023-12-29T19:41:55.710Z,99680.21
2023-12-29T19:44:28.036Z,99661.80
2023-12-29T19:47:00.241Z,99669.85
2023-12-29T19:49:34.735Z,99675.75
2023-12-29T19:52:08.238Z,99681.31
2023-12-29T19:54:40.901Z,99677.88
2023-12-29T19:57:13.022Z,99675.77
2023-12-29T19:59:47.129Z,99675.73
2023-12-29T20:02:19.087Z,99680.02
2023-12-29T20:04:52.493Z,99677.41
2023-12-29T20:07:28.212Z,99685.11
2023-12-29T20:10:00.942Z,99688.89
2023-12-29T20:12:33.402Z,99689.89
2023-12-29T20:15:06.087Z,99693.92
2023-12-29T20:17:39.507Z,99694.76
2023-12-29T20:20:13.919Z,99693.80
2023-12-29T20:22:46.202Z,99694.24
2023-12-29T20:25:21.785Z,99692.95
2023-12-29T20:27:56.642Z,99686.55
2023-12-29T20:30:28.930Z,99692.61
2023-12-29T20:33:01.533Z,99692.50
2023-12-29T20:35:34.153Z,99696.83
2023-12-29T20:38:11.061Z,99693.40
2023-12-29T20:40:43.321Z,99695.23
2023-12-29T20:43:15.325Z,99695.38
2023-12-29T20:45:47.742Z,99695.90
2023-12-29T20:48:19.974Z,99695.11
2023-12-29T20:50:55.614Z,99696.00
2023-12-29T20:53:31.923Z,99695.86
2023-12-29T20:56:04.083Z,99692.88
2023-12-29T20:58:36.335Z,99687.34
2023-12-29T21:01:09.887Z,99681.52
2023-12-29T21:03:42.869Z,99674.02
2023-12-29T21:06:19.486Z,99670.71
2023-12-29T21:08:51.914Z,99668.97
2023-12-29T21:11:26.622Z,99665.52
2023-12-29T21:13:58.883Z,99661.83
2023-12-29T21:16:31.316Z,99664.13
2023-12-29T21:19:03.625Z,99659.67
2023-12-29T21:21:41.433Z,99657.81
2023-12-29T21:24:13.948Z,99655.35
2023-12-29T21:26:48.183Z,99653.49
2023-12-29T21:29:20.445Z,99652.63
2023-12-29T21:31:52.519Z,99651.94
2023-12-29T21:34:24.931Z,99649.46
2023-12-29T21:36:59.158Z,99659.18
2023-12-29T21:39:33.440Z,99648.88
2023-12-29T21:42:05.925Z,99652.58
2023-12-29T21:44:37.832Z,99654.90
2023-12-29T21:47:10.741Z,99654.92
2023-12-29T21:49:43.138Z,99651.95
2023-12-29T21:52:15.329Z,99655.59
2023-12-29T21:54:47.376Z,99656.15
2023-12-29T21:57:19.755Z,99654.41
2023-12-29T21:59:51.703Z,99652.19
2023-12-29T22:02:23.629Z,99648.14
2023-12-29T22:04:58.171Z,99648.12
2023-12-29T22:07:30.295Z,99646.64
2023-12-29T22:10:02.290Z,99644.05
2023-12-29T22:12:34.797Z,99639.69
2023-12-29T22:15:08.253Z,99637.58
2023-12-29T22:17:40.531Z,99634.52
2023-12-29T22:20:13.983Z,99625.02
2023-12-29T22:22:45.920Z,99629.02
2023-12-29T22:25:18.420Z,99631.98
2023-12-29T22:27:50.992Z,99631.09
2023-12-29T22:30:25.418Z,99625.66
2023-12-29T22:32:57.410Z,99626.23
2023-12-29T22:35:29.616Z,99628.25
2023-12-29T22:38:01.967Z,99622.13
2023-12-29T22:40:34.785Z,99619.61
2023-12-29T22:43:07.160Z,99619.89
2023-12-29T22:45:39.441Z,99622.57
2023-12-29T22:48:12.171Z,99621.92
2023-12-29T22:50:44.131Z,99621.02
2023-12-29T22:53:16.698Z,99621.20
2023-12-29T22:55:51.274Z,99623.56
2023-12-29T22:58:23.894Z,99620.05
2023-12-29T23:00:56.239Z,99619.73
2023-12-29T23:03:28.220Z,99614.45
2023-12-29T23:06:00.223Z,99610.86
2023-12-29T23:08:33.003Z,99607.19
2023-12-29T23:11:05.626Z,99603.67
2023-12-29T23:13:39.818Z,99600.85
2023-12-29T23:16:11.866Z,99599.72
2023-12-29T23:18:45.266Z,99594.98
2023-12-29T23:21:19.626Z,99587.98
2023-12-29T23:23:51.544Z,99586.67
2023-12-29T23:26:25.464Z,99587.99
2023-12-29T23:28:57.599Z,99588.36
2023-12-29T23:31:29.690Z,99584.86
2023-12-29T23:34:01.697Z,99583.45
2023-12-29T23:36:33.685Z,99579.03
2023-12-29T23:39:05.621Z,99568.65
2023-12-29T23:41:37.611Z,99573.09
2023-12-29T23:44:11.982Z,99570.97
2023-12-29T23:46:44.129Z,99573.48
2023-12-29T23:49:16.847Z,99574.05
2023-12-29T23:51:48.990Z,99573.84
2023-12-29T23:54:21.064Z,99570.59
2023-12-29T23:56:53.604Z,99562.24
2023-12-29T23:59:25.922Z,99554.29
